sensor_id;sensor_type;location;lat;lon;timestamp;temperature;humidity
4647;DHT22;2336;47.822;7.564;2023-03-31T00:01:24;14.00;99.90
4647;DHT22;2336;47.822;7.564;2023-03-31T00:03:51;14.00;99.90
4647;DHT22;2336;47.822;7.564;2023-03-31T00:06:28;14.00;99.90
4647;DHT22;2336;47.822;7.564;2023-03-31T00:08:55;14.10;99.90
4647;DHT22;2336;47.822;7.564;2023-03-31T00:11:26;14.10;99.90
4647;DHT22;2336;47.822;7.564;2023-03-31T00:13:53;14.20;99.90
4647;DHT22;2336;47.822;7.564;2023-03-31T00:16:20;14.20;99.90
4647;DHT22;2336;47.822;7.564;2023-03-31T00:18:47;14.20;99.90
4647;DHT22;2336;47.822;7.564;2023-03-31T00:21:16;14.30;99.90
4647;DHT22;2336;47.822;7.564;2023-03-31T00:23:52;14.30;99.90
4647;DHT22;2336;47.822;7.564;2023-03-31T00:26:19;14.30;99.90
4647;DHT22;2336;47.822;7.564;2023-03-31T00:28:47;14.20;99.90
4647;DHT22;2336;47.822;7.564;2023-03-31T00:31:14;14.10;99.90
4647;DHT22;2336;47.822;7.564;2023-03-31T00:33:41;14.00;99.90
4647;DHT22;2336;47.822;7.564;2023-03-31T00:36:08;13.90;99.90
4647;DHT22;2336;47.822;7.564;2023-03-31T00:38:35;13.80;99.90
4647;DHT22;2336;47.822;7.564;2023-03-31T00:41:03;13.70;99.90
4647;DHT22;2336;47.822;7.564;2023-03-31T00:43:32;13.60;99.90
4647;DHT22;2336;47.822;7.564;2023-03-31T00:46:04;13.60;99.90
4647;DHT22;2336;47.822;7.564;2023-03-31T00:48:31;13.50;99.90
4647;DHT22;2336;47.822;7.564;2023-03-31T00:50:59;13.40;99.90
4647;DHT22;2336;47.822;7.564;2023-03-31T00:53:31;13.40;99.90
4647;DHT22;2336;47.822;7.564;2023-03-31T00:56:03;13.30;99.90
4647;DHT22;2336;47.822;7.564;2023-03-31T00:58:32;13.30;99.90
4647;DHT22;2336;47.822;7.564;2023-03-31T01:01:00;13.20;99.90
4647;DHT22;2336;47.822;7.564;2023-03-31T01:03:30;13.20;99.90
4647;DHT22;2336;47.822;7.564;2023-03-31T01:06:00;13.20;99.90
4647;DHT22;2336;47.822;7.564;2023-03-31T01:08:29;13.10;99.90
4647;DHT22;2336;47.822;7.564;2023-03-31T01:11:03;13.10;99.90
4647;DHT22;2336;47.822;7.564;2023-03-31T01:13:30;13.00;99.90
4647;DHT22;2336;47.822;7.564;2023-03-31T01:15:58;13.00;99.90
4647;DHT22;2336;47.822;7.564;2023-03-31T01:18:24;12.90;99.90
4647;DHT22;2336;47.822;7.564;2023-03-31T01:21:12;13.00;99.90
4647;DHT22;2336;47.822;7.564;2023-03-31T01:24:06;13.00;99.90
4647;DHT22;2336;47.822;7.564;2023-03-31T01:27:03;13.00;99.90
4647;DHT22;2336;47.822;7.564;2023-03-31T01:29:57;13.00;99.90
4647;DHT22;2336;47.822;7.564;2023-03-31T01:32:48;13.00;99.90
4647;DHT22;2336;47.822;7.564;2023-03-31T01:35:31;12.90;99.90
4647;DHT22;2336;47.822;7.564;2023-03-31T01:38:30;12.90;99.90
4647;DHT22;2336;47.822;7.564;2023-03-31T01:41:25;12.90;99.90
4647;DHT22;2336;47.822;7.564;2023-03-31T01:44:01;12.90;99.90
4647;DHT22;2336;47.822;7.564;2023-03-31T01:46:35;12.90;99.90
4647;DHT22;2336;47.822;7.564;2023-03-31T01:49:12;12.90;99.90
4647;DHT22;2336;47.822;7.564;2023-03-31T01:51:45;12.90;99.90
4647;DHT22;2336;47.822;7.564;2023-03-31T01:54:19;12.80;99.90
4647;DHT22;2336;47.822;7.564;2023-03-31T01:56:50;12.70;99.90
4647;DHT22;2336;47.822;7.564;2023-03-31T01:59:24;12.60;99.90
4647;DHT22;2336;47.822;7.564;2023-03-31T02:01:56;12.50;99.90
4647;DHT22;2336;47.822;7.564;2023-03-31T02:04:28;12.40;99.90
4647;DHT22;2336;47.822;7.564;2023-03-31T02:07:01;12.30;99.90
4647;DHT22;2336;47.822;7.564;2023-03-31T02:09:32;12.30;99.90
4647;DHT22;2336;47.822;7.564;2023-03-31T02:12:03;12.20;99.90
4647;DHT22;2336;47.822;7.564;2023-03-31T02:14:32;12.30;99.90
4647;DHT22;2336;47.822;7.564;2023-03-31T02:17:01;12.30;99.90
4647;DHT22;2336;47.822;7.564;2023-03-31T02:19:31;12.30;99.90
4647;DHT22;2336;47.822;7.564;2023-03-31T02:21:58;12.30;99.90
4647;DHT22;2336;47.822;7.564;2023-03-31T02:24:30;12.30;99.90
4647;DHT22;2336;47.822;7.564;2023-03-31T02:27:05;12.30;99.90
4647;DHT22;2336;47.822;7.564;2023-03-31T02:29:33;12.30;99.90
4647;DHT22;2336;47.822;7.564;2023-03-31T02:32:03;12.20;99.90
4647;DHT22;2336;47.822;7.564;2023-03-31T02:34:32;12.30;99.90
4647;DHT22;2336;47.822;7.564;2023-03-31T02:36:59;12.40;99.90
4647;DHT22;2336;47.822;7.564;2023-03-31T02:39:29;12.40;99.90
4647;DHT22;2336;47.822;7.564;2023-03-31T02:41:57;12.40;99.90
4647;DHT22;2336;47.822;7.564;2023-03-31T02:44:25;12.50;99.90
4647;DHT22;2336;47.822;7.564;2023-03-31T02:46:53;12.50;99.90
4647;DHT22;2336;47.822;7.564;2023-03-31T02:49:20;12.60;99.90
4647;DHT22;2336;47.822;7.564;2023-03-31T02:51:59;12.70;99.90
4647;DHT22;2336;47.822;7.564;2023-03-31T02:57:56;12.80;99.90
4647;DHT22;2336;47.822;7.564;2023-03-31T03:00:35;12.80;99.90
4647;DHT22;2336;47.822;7.564;2023-03-31T03:03:14;12.80;99.90
4647;DHT22;2336;47.822;7.564;2023-03-31T03:05:49;12.80;99.90
4647;DHT22;2336;47.822;7.564;2023-03-31T03:08:27;12.90;99.90
4647;DHT22;2336;47.822;7.564;2023-03-31T03:11:03;12.90;99.90
4647;DHT22;2336;47.822;7.564;2023-03-31T03:13:35;12.90;99.90
4647;DHT22;2336;47.822;7.564;2023-03-31T03:16:11;13.00;99.90
4647;DHT22;2336;47.822;7.564;2023-03-31T03:18:43;13.00;99.90
4647;DHT22;2336;47.822;7.564;2023-03-31T03:21:10;13.00;99.90
4647;DHT22;2336;47.822;7.564;2023-03-31T03:23:37;13.00;99.90
4647;DHT22;2336;47.822;7.564;2023-03-31T03:26:04;13.00;99.90
4647;DHT22;2336;47.822;7.564;2023-03-31T03:28:31;13.10;99.90
4647;DHT22;2336;47.822;7.564;2023-03-31T03:30:57;13.10;99.90
4647;DHT22;2336;47.822;7.564;2023-03-31T03:33:25;13.10;99.90
4647;DHT22;2336;47.822;7.564;2023-03-31T03:35:52;13.10;99.90
4647;DHT22;2336;47.822;7.564;2023-03-31T03:38:19;13.20;99.90
4647;DHT22;2336;47.822;7.564;2023-03-31T03:40:45;13.20;99.90
4647;DHT22;2336;47.822;7.564;2023-03-31T03:43:12;13.20;99.90
4647;DHT22;2336;47.822;7.564;2023-03-31T03:45:39;13.20;99.90
4647;DHT22;2336;47.822;7.564;2023-03-31T03:48:06;13.20;99.90
4647;DHT22;2336;47.822;7.564;2023-03-31T03:50:36;13.20;99.90
4647;DHT22;2336;47.822;7.564;2023-03-31T03:53:03;13.30;99.90
4647;DHT22;2336;47.822;7.564;2023-03-31T03:55:29;13.30;99.90
4647;DHT22;2336;47.822;7.564;2023-03-31T03:57:56;13.30;99.90
4647;DHT22;2336;47.822;7.564;2023-03-31T04:00:23;13.30;99.90
4647;DHT22;2336;47.822;7.564;2023-03-31T04:02:50;13.30;99.90
4647;DHT22;2336;47.822;7.564;2023-03-31T04:05:16;13.40;99.90
4647;DHT22;2336;47.822;7.564;2023-03-31T04:07:44;13.50;99.90
4647;DHT22;2336;47.822;7.564;2023-03-31T04:10:11;13.50;99.90
4647;DHT22;2336;47.822;7.564;2023-03-31T04:12:38;13.40;99.90
4647;DHT22;2336;47.822;7.564;2023-03-31T04:15:06;13.30;99.90
4647;DHT22;2336;47.822;7.564;2023-03-31T04:17:33;13.30;99.90
4647;DHT22;2336;47.822;7.564;2023-03-31T04:20:02;13.30;99.90
4647;DHT22;2336;47.822;7.564;2023-03-31T04:22:34;13.20;99.90
4647;DHT22;2336;47.822;7.564;2023-03-31T04:25:08;13.00;99.90
4647;DHT22;2336;47.822;7.564;2023-03-31T04:27:39;12.90;99.90
4647;DHT22;2336;47.822;7.564;2023-03-31T04:30:12;12.80;99.90
4647;DHT22;2336;47.822;7.564;2023-03-31T04:32:47;12.80;99.90
4647;DHT22;2336;47.822;7.564;2023-03-31T04:35:15;12.60;99.90
4647;DHT22;2336;47.822;7.564;2023-03-31T04:37:42;12.50;99.90
4647;DHT22;2336;47.822;7.564;2023-03-31T04:40:11;12.50;99.90
4647;DHT22;2336;47.822;7.564;2023-03-31T04:42:37;12.40;99.90
4647;DHT22;2336;47.822;7.564;2023-03-31T04:45:05;12.30;99.90
4647;DHT22;2336;47.822;7.564;2023-03-31T04:47:31;12.30;99.90
4647;DHT22;2336;47.822;7.564;2023-03-31T04:49:58;12.10;99.90
4647;DHT22;2336;47.822;7.564;2023-03-31T04:52:25;12.00;99.90
4647;DHT22;2336;47.822;7.564;2023-03-31T04:54:52;11.80;99.90
4647;DHT22;2336;47.822;7.564;2023-03-31T04:57:20;11.70;99.90
4647;DHT22;2336;47.822;7.564;2023-03-31T04:59:46;11.50;99.90
4647;DHT22;2336;47.822;7.564;2023-03-31T05:02:13;11.30;99.90
4647;DHT22;2336;47.822;7.564;2023-03-31T05:04:48;11.30;99.90
4647;DHT22;2336;47.822;7.564;2023-03-31T05:07:15;11.20;99.90
4647;DHT22;2336;47.822;7.564;2023-03-31T05:09:42;11.00;99.90
4647;DHT22;2336;47.822;7.564;2023-03-31T05:12:08;10.90;99.90
4647;DHT22;2336;47.822;7.564;2023-03-31T05:14:36;10.80;99.90
4647;DHT22;2336;47.822;7.564;2023-03-31T05:17:03;10.80;99.90
4647;DHT22;2336;47.822;7.564;2023-03-31T05:19:30;10.70;99.90
4647;DHT22;2336;47.822;7.564;2023-03-31T05:21:57;10.60;99.90
4647;DHT22;2336;47.822;7.564;2023-03-31T05:24:23;10.60;99.90
4647;DHT22;2336;47.822;7.564;2023-03-31T05:26:52;10.60;99.90
4647;DHT22;2336;47.822;7.564;2023-03-31T05:29:20;10.50;99.90
4647;DHT22;2336;47.822;7.564;2023-03-31T05:31:48;10.50;99.90
4647;DHT22;2336;47.822;7.564;2023-03-31T05:34:15;10.40;99.90
4647;DHT22;2336;47.822;7.564;2023-03-31T05:36:42;10.40;99.90
4647;DHT22;2336;47.822;7.564;2023-03-31T05:39:09;10.40;99.90
4647;DHT22;2336;47.822;7.564;2023-03-31T05:41:36;10.40;99.90
4647;DHT22;2336;47.822;7.564;2023-03-31T05:44:02;10.40;99.90
4647;DHT22;2336;47.822;7.564;2023-03-31T05:46:29;10.40;99.90
4647;DHT22;2336;47.822;7.564;2023-03-31T05:48:57;10.50;99.90
4647;DHT22;2336;47.822;7.564;2023-03-31T05:51:24;10.50;99.90
4647;DHT22;2336;47.822;7.564;2023-03-31T05:53:50;10.50;99.90
4647;DHT22;2336;47.822;7.564;2023-03-31T05:56:17;10.50;99.90
4647;DHT22;2336;47.822;7.564;2023-03-31T05:58:44;10.60;99.90
4647;DHT22;2336;47.822;7.564;2023-03-31T06:01:12;10.60;99.90
4647;DHT22;2336;47.822;7.564;2023-03-31T06:03:45;10.40;99.90
4647;DHT22;2336;47.822;7.564;2023-03-31T06:06:13;10.00;99.90
4647;DHT22;2336;47.822;7.564;2023-03-31T06:08:41;9.80;99.90
4647;DHT22;2336;47.822;7.564;2023-03-31T06:11:10;9.80;99.90
4647;DHT22;2336;47.822;7.564;2023-03-31T06:13:38;9.80;99.90
4647;DHT22;2336;47.822;7.564;2023-03-31T06:16:05;9.80;99.90
4647;DHT22;2336;47.822;7.564;2023-03-31T06:18:33;9.70;99.90
4647;DHT22;2336;47.822;7.564;2023-03-31T06:21:01;9.70;99.90
4647;DHT22;2336;47.822;7.564;2023-03-31T06:23:29;9.80;99.90
4647;DHT22;2336;47.822;7.564;2023-03-31T06:25:59;9.80;99.90
4647;DHT22;2336;47.822;7.564;2023-03-31T06:28:27;9.80;99.90
4647;DHT22;2336;47.822;7.564;2023-03-31T06:30:59;9.80;99.90
4647;DHT22;2336;47.822;7.564;2023-03-31T06:33:26;9.70;99.90
4647;DHT22;2336;47.822;7.564;2023-03-31T06:35:54;9.70;99.90
4647;DHT22;2336;47.822;7.564;2023-03-31T06:38:21;9.80;99.90
4647;DHT22;2336;47.822;7.564;2023-03-31T06:40:49;9.70;99.90
4647;DHT22;2336;47.822;7.564;2023-03-31T06:43:16;9.70;99.90
4647;DHT22;2336;47.822;7.564;2023-03-31T06:45:43;9.70;99.90
4647;DHT22;2336;47.822;7.564;2023-03-31T06:48:09;9.60;99.90
4647;DHT22;2336;47.822;7.564;2023-03-31T06:50:37;9.50;99.90
4647;DHT22;2336;47.822;7.564;2023-03-31T06:53:03;9.50;99.90
4647;DHT22;2336;47.822;7.564;2023-03-31T06:55:30;9.50;99.90
4647;DHT22;2336;47.822;7.564;2023-03-31T06:57:59;9.50;99.90
4647;DHT22;2336;47.822;7.564;2023-03-31T07:00:26;9.50;99.90
4647;DHT22;2336;47.822;7.564;2023-03-31T07:02:53;9.60;99.90
4647;DHT22;2336;47.822;7.564;2023-03-31T07:05:20;9.70;99.90
4647;DHT22;2336;47.822;7.564;2023-03-31T07:07:51;9.70;99.90
4647;DHT22;2336;47.822;7.564;2023-03-31T07:10:17;9.80;99.90
4647;DHT22;2336;47.822;7.564;2023-03-31T07:12:44;9.80;99.90
4647;DHT22;2336;47.822;7.564;2023-03-31T07:15:12;9.90;99.90
4647;DHT22;2336;47.822;7.564;2023-03-31T07:17:39;10.00;99.90
4647;DHT22;2336;47.822;7.564;2023-03-31T07:20:07;10.10;99.90
4647;DHT22;2336;47.822;7.564;2023-03-31T07:22:37;10.20;99.90
4647;DHT22;2336;47.822;7.564;2023-03-31T07:25:06;10.20;99.90
4647;DHT22;2336;47.822;7.564;2023-03-31T07:27:33;10.30;99.90
4647;DHT22;2336;47.822;7.564;2023-03-31T07:30:00;10.30;99.90
4647;DHT22;2336;47.822;7.564;2023-03-31T07:32:28;10.40;99.90
4647;DHT22;2336;47.822;7.564;2023-03-31T07:34:55;10.40;99.90
4647;DHT22;2336;47.822;7.564;2023-03-31T07:37:21;10.40;99.90
4647;DHT22;2336;47.822;7.564;2023-03-31T07:39:48;10.50;99.90
4647;DHT22;2336;47.822;7.564;2023-03-31T07:42:15;10.50;99.90
4647;DHT22;2336;47.822;7.564;2023-03-31T07:44:42;10.60;99.90
4647;DHT22;2336;47.822;7.564;2023-03-31T07:47:09;10.60;99.90
4647;DHT22;2336;47.822;7.564;2023-03-31T07:49:37;10.60;99.90
4647;DHT22;2336;47.822;7.564;2023-03-31T07:52:03;10.60;99.90
4647;DHT22;2336;47.822;7.564;2023-03-31T07:54:30;10.60;99.90
4647;DHT22;2336;47.822;7.564;2023-03-31T07:56:57;10.70;99.90
4647;DHT22;2336;47.822;7.564;2023-03-31T07:59:26;10.60;99.90
4647;DHT22;2336;47.822;7.564;2023-03-31T08:01:53;10.60;99.90
4647;DHT22;2336;47.822;7.564;2023-03-31T08:04:19;10.70;99.90
4647;DHT22;2336;47.822;7.564;2023-03-31T08:06:47;10.80;99.90
4647;DHT22;2336;47.822;7.564;2023-03-31T08:09:16;11.10;99.90
4647;DHT22;2336;47.822;7.564;2023-03-31T08:11:42;11.40;99.90
4647;DHT22;2336;47.822;7.564;2023-03-31T08:14:09;11.70;99.90
4647;DHT22;2336;47.822;7.564;2023-03-31T08:16:36;12.10;99.90
4647;DHT22;2336;47.822;7.564;2023-03-31T08:19:03;12.30;99.90
4647;DHT22;2336;47.822;7.564;2023-03-31T08:21:29;12.40;99.90
4647;DHT22;2336;47.822;7.564;2023-03-31T08:23:58;12.50;99.90
4647;DHT22;2336;47.822;7.564;2023-03-31T08:26:25;12.60;99.90
4647;DHT22;2336;47.822;7.564;2023-03-31T08:28:52;12.70;99.90
4647;DHT22;2336;47.822;7.564;2023-03-31T08:31:20;12.80;99.90
4647;DHT22;2336;47.822;7.564;2023-03-31T08:33:48;12.90;99.90
4647;DHT22;2336;47.822;7.564;2023-03-31T08:36:15;13.00;99.90
4647;DHT22;2336;47.822;7.564;2023-03-31T08:38:42;13.00;99.90
4647;DHT22;2336;47.822;7.564;2023-03-31T08:41:22;13.20;99.90
4647;DHT22;2336;47.822;7.564;2023-03-31T08:43:54;13.50;99.90
4647;DHT22;2336;47.822;7.564;2023-03-31T08:46:21;13.50;99.90
4647;DHT22;2336;47.822;7.564;2023-03-31T08:48:50;13.50;99.90
4647;DHT22;2336;47.822;7.564;2023-03-31T08:51:21;13.60;99.90
4647;DHT22;2336;47.822;7.564;2023-03-31T08:53:51;13.80;99.90
4647;DHT22;2336;47.822;7.564;2023-03-31T08:56:25;14.10;99.90
4647;DHT22;2336;47.822;7.564;2023-03-31T08:58:52;14.20;99.90
4647;DHT22;2336;47.822;7.564;2023-03-31T09:01:26;14.20;99.90
4647;DHT22;2336;47.822;7.564;2023-03-31T09:04:07;14.40;99.90
4647;DHT22;2336;47.822;7.564;2023-03-31T09:06:39;14.50;99.90
4647;DHT22;2336;47.822;7.564;2023-03-31T09:09:11;14.70;99.90
4647;DHT22;2336;47.822;7.564;2023-03-31T09:11:45;14.80;99.90
4647;DHT22;2336;47.822;7.564;2023-03-31T09:14:32;14.80;99.90
4647;DHT22;2336;47.822;7.564;2023-03-31T09:17:12;14.90;99.90
4647;DHT22;2336;47.822;7.564;2023-03-31T09:19:43;14.90;99.90
4647;DHT22;2336;47.822;7.564;2023-03-31T09:22:15;14.80;99.90
4647;DHT22;2336;47.822;7.564;2023-03-31T09:24:49;14.70;99.90
4647;DHT22;2336;47.822;7.564;2023-03-31T09:27:19;14.80;99.90
4647;DHT22;2336;47.822;7.564;2023-03-31T09:29:49;14.80;99.90
4647;DHT22;2336;47.822;7.564;2023-03-31T09:32:19;15.10;99.90
4647;DHT22;2336;47.822;7.564;2023-03-31T09:34:51;15.10;99.90
4647;DHT22;2336;47.822;7.564;2023-03-31T09:37:19;15.30;99.90
4647;DHT22;2336;47.822;7.564;2023-03-31T09:39:45;15.40;99.90
4647;DHT22;2336;47.822;7.564;2023-03-31T09:42:13;15.50;99.90
4647;DHT22;2336;47.822;7.564;2023-03-31T09:44:43;15.60;99.90
4647;DHT22;2336;47.822;7.564;2023-03-31T09:47:15;15.80;99.90
4647;DHT22;2336;47.822;7.564;2023-03-31T09:49:45;15.80;99.90
4647;DHT22;2336;47.822;7.564;2023-03-31T09:52:17;15.70;99.90
4647;DHT22;2336;47.822;7.564;2023-03-31T09:54:49;15.70;99.90
4647;DHT22;2336;47.822;7.564;2023-03-31T09:57:23;15.80;99.90
4647;DHT22;2336;47.822;7.564;2023-03-31T09:59:53;15.80;99.50
4647;DHT22;2336;47.822;7.564;2023-03-31T10:02:34;16.00;99.40
4647;DHT22;2336;47.822;7.564;2023-03-31T10:05:03;16.10;98.20
4647;DHT22;2336;47.822;7.564;2023-03-31T10:07:32;16.20;98.80
4647;DHT22;2336;47.822;7.564;2023-03-31T10:09:59;16.20;98.00
4647;DHT22;2336;47.822;7.564;2023-03-31T10:12:28;15.90;97.90
4647;DHT22;2336;47.822;7.564;2023-03-31T10:15:13;16.00;98.10
4647;DHT22;2336;47.822;7.564;2023-03-31T10:17:43;16.10;97.10
4647;DHT22;2336;47.822;7.564;2023-03-31T10:20:19;15.90;97.60
4647;DHT22;2336;47.822;7.564;2023-03-31T10:22:47;15.80;97.20
4647;DHT22;2336;47.822;7.564;2023-03-31T10:25:16;15.90;97.10
4647;DHT22;2336;47.822;7.564;2023-03-31T10:27:45;15.90;97.10
4647;DHT22;2336;47.822;7.564;2023-03-31T10:30:20;16.10;96.80
4647;DHT22;2336;47.822;7.564;2023-03-31T10:32:48;16.30;97.10
4647;DHT22;2336;47.822;7.564;2023-03-31T10:35:23;16.40;95.90
4647;DHT22;2336;47.822;7.564;2023-03-31T10:37:55;16.60;96.50
4647;DHT22;2336;47.822;7.564;2023-03-31T10:40:25;16.70;96.30
4647;DHT22;2336;47.822;7.564;2023-03-31T10:43:02;16.60;94.60
4647;DHT22;2336;47.822;7.564;2023-03-31T10:45:36;16.80;95.60
4647;DHT22;2336;47.822;7.564;2023-03-31T10:48:04;16.60;94.80
4647;DHT22;2336;47.822;7.564;2023-03-31T10:50:33;16.60;95.50
4647;DHT22;2336;47.822;7.564;2023-03-31T10:53:02;16.40;95.80
4647;DHT22;2336;47.822;7.564;2023-03-31T10:55:34;16.50;95.70
4647;DHT22;2336;47.822;7.564;2023-03-31T10:58:09;16.70;96.10
4647;DHT22;2336;47.822;7.564;2023-03-31T11:00:49;16.80;95.40
4647;DHT22;2336;47.822;7.564;2023-03-31T11:03:41;17.30;94.20
4647;DHT22;2336;47.822;7.564;2023-03-31T11:06:15;17.80;93.90
4647;DHT22;2336;47.822;7.564;2023-03-31T11:08:51;17.60;92.80
4647;DHT22;2336;47.822;7.564;2023-03-31T11:11:38;17.00;93.20
4647;DHT22;2336;47.822;7.564;2023-03-31T11:14:16;16.30;93.40
4647;DHT22;2336;47.822;7.564;2023-03-31T11:16:50;15.40;94.80
4647;DHT22;2336;47.822;7.564;2023-03-31T11:19:31;14.80;99.90
4647;DHT22;2336;47.822;7.564;2023-03-31T11:22:07;14.70;99.90
4647;DHT22;2336;47.822;7.564;2023-03-31T11:25:07;14.60;99.90
4647;DHT22;2336;47.822;7.564;2023-03-31T11:27:48;14.50;99.90
4647;DHT22;2336;47.822;7.564;2023-03-31T11:30:21;14.60;99.90
4647;DHT22;2336;47.822;7.564;2023-03-31T11:33:07;14.50;99.90
4647;DHT22;2336;47.822;7.564;2023-03-31T11:35:50;14.20;99.90
4647;DHT22;2336;47.822;7.564;2023-03-31T11:38:34;13.70;99.90
4647;DHT22;2336;47.822;7.564;2023-03-31T11:41:07;12.80;99.90
4647;DHT22;2336;47.822;7.564;2023-03-31T11:43:41;12.30;99.90
4647;DHT22;2336;47.822;7.564;2023-03-31T11:46:12;11.80;99.90
4647;DHT22;2336;47.822;7.564;2023-03-31T11:48:45;11.80;99.90
4647;DHT22;2336;47.822;7.564;2023-03-31T11:51:16;12.00;99.90
4647;DHT22;2336;47.822;7.564;2023-03-31T11:53:46;12.40;99.90
4647;DHT22;2336;47.822;7.564;2023-03-31T11:56:14;12.80;99.90
4647;DHT22;2336;47.822;7.564;2023-03-31T11:58:45;13.40;99.90
4647;DHT22;2336;47.822;7.564;2023-03-31T12:01:18;13.90;99.90
4647;DHT22;2336;47.822;7.564;2023-03-31T12:03:53;14.50;99.90
4647;DHT22;2336;47.822;7.564;2023-03-31T12:06:24;14.90;99.90
4647;DHT22;2336;47.822;7.564;2023-03-31T12:09:04;15.40;99.90
4647;DHT22;2336;47.822;7.564;2023-03-31T12:11:35;15.60;99.90
4647;DHT22;2336;47.822;7.564;2023-03-31T12:14:15;16.00;99.90
4647;DHT22;2336;47.822;7.564;2023-03-31T12:16:48;16.20;99.90
4647;DHT22;2336;47.822;7.564;2023-03-31T12:19:21;16.20;99.90
4647;DHT22;2336;47.822;7.564;2023-03-31T12:21:54;16.30;99.90
4647;DHT22;2336;47.822;7.564;2023-03-31T12:24:22;16.50;99.90
4647;DHT22;2336;47.822;7.564;2023-03-31T12:26:58;16.60;99.90
4647;DHT22;2336;47.822;7.564;2023-03-31T12:29:30;16.70;99.90
4647;DHT22;2336;47.822;7.564;2023-03-31T12:32:01;16.70;99.90
4647;DHT22;2336;47.822;7.564;2023-03-31T12:34:33;16.90;99.60
4647;DHT22;2336;47.822;7.564;2023-03-31T12:37:19;17.20;99.30
4647;DHT22;2336;47.822;7.564;2023-03-31T12:39:55;17.00;98.50
4647;DHT22;2336;47.822;7.564;2023-03-31T12:42:39;16.80;98.70
4647;DHT22;2336;47.822;7.564;2023-03-31T12:45:14;17.00;98.30
4647;DHT22;2336;47.822;7.564;2023-03-31T12:47:57;16.90;98.20
4647;DHT22;2336;47.822;7.564;2023-03-31T12:50:41;17.00;97.50
4647;DHT22;2336;47.822;7.564;2023-03-31T12:53:15;17.10;96.90
4647;DHT22;2336;47.822;7.564;2023-03-31T12:55:48;17.10;96.10
4647;DHT22;2336;47.822;7.564;2023-03-31T12:58:36;17.10;96.40
4647;DHT22;2336;47.822;7.564;2023-03-31T13:01:06;17.00;96.10
4647;DHT22;2336;47.822;7.564;2023-03-31T13:03:46;16.80;96.40
4647;DHT22;2336;47.822;7.564;2023-03-31T13:09:45;16.60;96.20
4647;DHT22;2336;47.822;7.564;2023-03-31T13:12:19;16.50;96.50
4647;DHT22;2336;47.822;7.564;2023-03-31T13:14:50;16.30;95.90
4647;DHT22;2336;47.822;7.564;2023-03-31T13:17:39;16.00;96.20
4647;DHT22;2336;47.822;7.564;2023-03-31T13:20:25;15.80;96.90
4647;DHT22;2336;47.822;7.564;2023-03-31T13:23:01;15.40;96.10
4647;DHT22;2336;47.822;7.564;2023-03-31T13:25:45;12.80;99.90
4647;DHT22;2336;47.822;7.564;2023-03-31T13:28:17;10.40;99.90
4647;DHT22;2336;47.822;7.564;2023-03-31T13:30:52;9.60;99.90
4647;DHT22;2336;47.822;7.564;2023-03-31T13:33:38;9.10;99.90
4647;DHT22;2336;47.822;7.564;2023-03-31T13:39:11;8.90;99.90
4647;DHT22;2336;47.822;7.564;2023-03-31T13:41:50;8.70;99.90
4647;DHT22;2336;47.822;7.564;2023-03-31T13:47:52;8.80;99.90
4647;DHT22;2336;47.822;7.564;2023-03-31T13:50:41;9.00;99.90
4647;DHT22;2336;47.822;7.564;2023-03-31T13:53:35;9.30;99.90
4647;DHT22;2336;47.822;7.564;2023-03-31T13:56:14;9.60;99.90
4647;DHT22;2336;47.822;7.564;2023-03-31T14:02:04;9.80;99.90
4647;DHT22;2336;47.822;7.564;2023-03-31T14:04:58;9.70;99.90
4647;DHT22;2336;47.822;7.564;2023-03-31T14:07:30;9.60;99.90
4647;DHT22;2336;47.822;7.564;2023-03-31T14:09:58;9.40;99.90
4647;DHT22;2336;47.822;7.564;2023-03-31T14:12:30;9.50;99.90
4647;DHT22;2336;47.822;7.564;2023-03-31T14:14:59;9.40;99.90
4647;DHT22;2336;47.822;7.564;2023-03-31T14:17:28;9.30;99.90
4647;DHT22;2336;47.822;7.564;2023-03-31T14:20:13;9.20;99.90
4647;DHT22;2336;47.822;7.564;2023-03-31T14:22:53;9.20;99.90
4647;DHT22;2336;47.822;7.564;2023-03-31T14:25:34;9.10;99.90
4647;DHT22;2336;47.822;7.564;2023-03-31T14:28:13;9.20;99.90
4647;DHT22;2336;47.822;7.564;2023-03-31T14:30:52;9.20;99.90
4647;DHT22;2336;47.822;7.564;2023-03-31T14:33:31;9.20;99.90
4647;DHT22;2336;47.822;7.564;2023-03-31T14:36:08;9.30;99.90
4647;DHT22;2336;47.822;7.564;2023-03-31T14:38:36;9.50;99.90
4647;DHT22;2336;47.822;7.564;2023-03-31T14:41:03;9.80;99.90
4647;DHT22;2336;47.822;7.564;2023-03-31T14:43:32;10.10;99.90
4647;DHT22;2336;47.822;7.564;2023-03-31T14:46:03;10.20;99.90
4647;DHT22;2336;47.822;7.564;2023-03-31T14:48:33;10.10;99.90
4647;DHT22;2336;47.822;7.564;2023-03-31T14:51:01;10.40;99.90
4647;DHT22;2336;47.822;7.564;2023-03-31T14:53:28;10.30;99.90
4647;DHT22;2336;47.822;7.564;2023-03-31T14:56:02;10.30;99.90
4647;DHT22;2336;47.822;7.564;2023-03-31T14:58:33;10.40;99.90
4647;DHT22;2336;47.822;7.564;2023-03-31T15:01:04;10.50;99.90
4647;DHT22;2336;47.822;7.564;2023-03-31T15:03:32;10.50;99.90
4647;DHT22;2336;47.822;7.564;2023-03-31T15:06:02;10.50;99.90
4647;DHT22;2336;47.822;7.564;2023-03-31T15:08:31;10.80;99.90
4647;DHT22;2336;47.822;7.564;2023-03-31T15:11:00;10.60;99.90
4647;DHT22;2336;47.822;7.564;2023-03-31T15:13:32;10.50;99.90
4647;DHT22;2336;47.822;7.564;2023-03-31T15:15:59;10.40;99.90
4647;DHT22;2336;47.822;7.564;2023-03-31T15:18:45;10.40;99.90
4647;DHT22;2336;47.822;7.564;2023-03-31T15:21:19;10.40;99.90
4647;DHT22;2336;47.822;7.564;2023-03-31T15:23:46;10.80;99.90
4647;DHT22;2336;47.822;7.564;2023-03-31T15:26:15;11.20;99.90
4647;DHT22;2336;47.822;7.564;2023-03-31T15:28:48;11.60;99.90
4647;DHT22;2336;47.822;7.564;2023-03-31T15:31:18;11.80;99.90
4647;DHT22;2336;47.822;7.564;2023-03-31T15:33:46;12.10;99.90
4647;DHT22;2336;47.822;7.564;2023-03-31T15:36:13;12.10;99.90
4647;DHT22;2336;47.822;7.564;2023-03-31T15:38:40;12.20;99.90
4647;DHT22;2336;47.822;7.564;2023-03-31T15:41:11;12.20;99.90
4647;DHT22;2336;47.822;7.564;2023-03-31T15:43:45;12.30;99.90
4647;DHT22;2336;47.822;7.564;2023-03-31T15:46:18;12.30;99.90
4647;DHT22;2336;47.822;7.564;2023-03-31T15:48:50;12.30;99.90
4647;DHT22;2336;47.822;7.564;2023-03-31T15:51:23;12.40;99.90
4647;DHT22;2336;47.822;7.564;2023-03-31T15:53:52;12.50;99.90
4647;DHT22;2336;47.822;7.564;2023-03-31T15:56:29;12.50;99.90
4647;DHT22;2336;47.822;7.564;2023-03-31T15:58:58;12.50;99.90
4647;DHT22;2336;47.822;7.564;2023-03-31T16:01:28;12.60;99.90
4647;DHT22;2336;47.822;7.564;2023-03-31T16:03:59;12.60;99.90
4647;DHT22;2336;47.822;7.564;2023-03-31T16:06:40;12.80;99.90
4647;DHT22;2336;47.822;7.564;2023-03-31T16:09:08;12.70;99.90
4647;DHT22;2336;47.822;7.564;2023-03-31T16:11:40;12.70;99.90
4647;DHT22;2336;47.822;7.564;2023-03-31T16:14:11;12.80;99.90
4647;DHT22;2336;47.822;7.564;2023-03-31T16:16:45;12.90;99.90
4647;DHT22;2336;47.822;7.564;2023-03-31T16:19:14;13.00;99.90
4647;DHT22;2336;47.822;7.564;2023-03-31T16:21:42;13.10;99.90
4647;DHT22;2336;47.822;7.564;2023-03-31T16:24:09;13.20;99.90
4647;DHT22;2336;47.822;7.564;2023-03-31T16:26:37;13.20;99.90
4647;DHT22;2336;47.822;7.564;2023-03-31T16:29:04;13.10;99.90
4647;DHT22;2336;47.822;7.564;2023-03-31T16:31:33;13.10;99.90
4647;DHT22;2336;47.822;7.564;2023-03-31T16:34:01;13.00;99.90
4647;DHT22;2336;47.822;7.564;2023-03-31T16:36:30;13.00;99.90
4647;DHT22;2336;47.822;7.564;2023-03-31T16:38:56;13.10;99.90
4647;DHT22;2336;47.822;7.564;2023-03-31T16:41:26;13.00;99.90
4647;DHT22;2336;47.822;7.564;2023-03-31T16:43:53;13.00;99.90
4647;DHT22;2336;47.822;7.564;2023-03-31T16:46:21;13.00;99.90
4647;DHT22;2336;47.822;7.564;2023-03-31T16:48:48;13.00;99.90